createdAt,value
2023-04-30T00:01:33.994Z,50.00
2023-04-30T00:04:02.432Z,48.90
2023-04-30T00:06:31.243Z,48.50
2023-04-30T00:08:59.666Z,48.00
2023-04-30T00:11:28.077Z,47.10
2023-04-30T00:13:57.105Z,46.50
2023-04-30T00:16:26.148Z,46.30
2023-04-30T00:18:55.916Z,45.70
2023-04-30T00:21:24.350Z,45.50
2023-04-30T00:23:52.707Z,45.50
2023-04-30T00:26:21.077Z,45.10
2023-04-30T00:28:51.066Z,45.20
2023-04-30T00:31:19.546Z,45.10
2023-04-30T00:33:47.966Z,44.80
2023-04-30T00:36:17.870Z,45.40
2023-04-30T00:38:46.342Z,44.90
2023-04-30T00:41:15.346Z,43.90
2023-04-30T00:43:44.188Z,43.40
2023-04-30T00:46:12.541Z,43.90
2023-04-30T00:48:41.061Z,44.30
2023-04-30T00:51:09.548Z,44.40
2023-04-30T00:53:41.253Z,44.40
2023-04-30T00:56:11.315Z,44.20
2023-04-30T00:58:39.691Z,44.40
2023-04-30T01:01:09.057Z,44.40
2023-04-30T01:03:38.158Z,44.60
2023-04-30T01:06:07.645Z,44.60
2023-04-30T01:08:36.843Z,44.40
2023-04-30T01:11:17.581Z,44.20
2023-04-30T01:13:54.771Z,44.50
2023-04-30T01:16:26.971Z,44.20
2023-04-30T01:19:00.369Z,44.00
2023-04-30T01:21:32.676Z,44.40
2023-04-30T01:24:39.742Z,45.00
2023-04-30T01:27:23.406Z,44.90
2023-04-30T01:29:55.017Z,44.90
2023-04-30T01:32:24.315Z,45.20
2023-04-30T01:34:52.647Z,45.70
2023-04-30T01:37:27.987Z,46.20
2023-04-30T01:40:19.017Z,46.30
2023-04-30T01:42:57.597Z,47.50
2023-04-30T01:45:43.065Z,48.30
2023-04-30T01:48:22.542Z,49.10
2023-04-30T01:50:54.786Z,49.20
2023-04-30T01:53:30.701Z,48.50
2023-04-30T01:56:03.610Z,49.00
2023-04-30T01:58:33.241Z,48.20
2023-04-30T02:01:03.113Z,48.00
2023-04-30T02:03:31.628Z,48.60
2023-04-30T02:06:00.704Z,48.80
2023-04-30T02:08:31.537Z,48.30
2023-04-30T02:10:59.946Z,48.40
2023-04-30T02:13:28.266Z,47.80
2023-04-30T02:15:58.372Z,47.60
2023-04-30T02:18:33.394Z,47.70
2023-04-30T02:21:02.729Z,47.40
2023-04-30T02:23:33.161Z,47.50
2023-04-30T02:26:03.184Z,48.00
2023-04-30T02:28:31.696Z,47.70
2023-04-30T02:31:02.064Z,47.30
2023-04-30T02:33:37.998Z,47.20
2023-04-30T02:36:07.565Z,46.40
2023-04-30T02:38:36.044Z,46.60
2023-04-30T02:41:04.649Z,46.20
2023-04-30T02:43:33.572Z,46.20
2023-04-30T02:46:02.318Z,46.20
2023-04-30T02:48:31.304Z,46.30
2023-04-30T02:51:01.339Z,45.70
2023-04-30T02:53:29.758Z,45.40
2023-04-30T02:56:00.696Z,46.10
2023-04-30T02:58:29.287Z,46.40
2023-04-30T03:00:57.956Z,46.30
2023-04-30T03:03:26.374Z,46.50
2023-04-30T03:05:56.775Z,46.20
2023-04-30T03:08:26.639Z,45.50
2023-04-30T03:10:55.084Z,45.80
2023-04-30T03:13:25.896Z,45.50
2023-04-30T03:16:00.017Z,45.50
2023-04-30T03:18:28.568Z,45.90
2023-04-30T03:20:57.049Z,44.90
2023-04-30T03:23:29.269Z,45.50
2023-04-30T03:25:57.834Z,45.50
2023-04-30T03:28:26.216Z,46.10
2023-04-30T03:30:55.819Z,45.90
2023-04-30T03:33:24.928Z,45.60
2023-04-30T03:35:54.113Z,45.70
2023-04-30T03:38:22.455Z,45.60
2023-04-30T03:40:52.151Z,45.20
2023-04-30T03:43:20.857Z,44.80
2023-04-30T03:45:49.580Z,45.10
2023-04-30T03:48:18.663Z,44.80
2023-04-30T03:50:47.663Z,45.00
2023-04-30T03:53:16.045Z,45.10
2023-04-30T03:55:44.906Z,46.20
2023-04-30T03:58:14.975Z,45.00
2023-04-30T04:00:43.412Z,45.30
2023-04-30T04:03:12.550Z,45.40
2023-04-30T04:05:42.795Z,45.50
2023-04-30T04:08:12.228Z,45.80
2023-04-30T04:10:41.056Z,45.20
2023-04-30T04:13:11.581Z,45.30
2023-04-30T04:15:41.919Z,45.20
2023-04-30T04:18:10.786Z,45.90
2023-04-30T04:20:40.520Z,46.30
2023-04-30T04:23:09.008Z,46.60
2023-04-30T04:25:37.386Z,46.60
2023-04-30T04:28:07.060Z,46.90
2023-04-30T04:30:36.686Z,46.50
2023-04-30T04:33:08.641Z,46.20
2023-04-30T04:35:37.253Z,46.70
2023-04-30T04:38:06.201Z,48.50
2023-04-30T04:40:35.689Z,48.50
2023-04-30T04:43:04.302Z,48.30
2023-04-30T04:45:33.765Z,48.70
2023-04-30T04:48:02.505Z,49.30
2023-04-30T04:50:32.779Z,48.80
2023-04-30T04:53:01.152Z,48.30
2023-04-30T04:55:29.449Z,48.20
2023-04-30T04:57:57.854Z,48.30
2023-04-30T05:00:26.338Z,48.20
2023-04-30T05:02:55.116Z,48.20
2023-04-30T05:05:23.996Z,48.30
2023-04-30T05:07:55.048Z,48.30
2023-04-30T05:10:23.459Z,47.70
2023-04-30T05:12:51.828Z,46.50
2023-04-30T05:15:20.941Z,48.30
2023-04-30T05:17:49.984Z,48.30
2023-04-30T05:20:18.716Z,48.10
2023-04-30T05:22:47.416Z,48.50
2023-04-30T05:25:17.371Z,49.30
2023-04-30T05:27:45.922Z,49.30
2023-04-30T05:30:15.729Z,48.80
2023-04-30T05:32:44.296Z,48.30
2023-04-30T05:35:13.073Z,48.20
2023-04-30T05:37:41.861Z,48.30
2023-04-30T05:40:11.268Z,48.80
2023-04-30T05:42:41.231Z,49.10
2023-04-30T05:45:10.705Z,48.20
2023-04-30T05:47:40.018Z,48.60
2023-04-30T05:50:11.331Z,49.50
2023-04-30T05:52:40.178Z,49.60
2023-04-30T05:55:09.849Z,49.50
2023-04-30T05:57:38.492Z,48.30
2023-04-30T06:00:10.406Z,48.30
2023-04-30T06:02:41.587Z,48.90
2023-04-30T06:05:10.781Z,49.20
2023-04-30T06:07:39.309Z,48.80
2023-04-30T06:10:09.507Z,48.70
2023-04-30T06:12:38.333Z,48.30
2023-04-30T06:15:09.982Z,48.20
2023-04-30T06:17:39.960Z,48.50
2023-04-30T06:20:09.711Z,48.80
2023-04-30T06:22:41.201Z,48.80
2023-04-30T06:25:10.562Z,48.20
2023-04-30T06:27:39.127Z,48.10
2023-04-30T06:30:10.970Z,48.30
2023-04-30T06:32:39.567Z,48.10
2023-04-30T06:35:08.477Z,49.10
2023-04-30T06:37:38.037Z,48.80
2023-04-30T06:40:08.840Z,50.00
2023-04-30T06:42:37.245Z,49.50
2023-04-30T06:45:07.074Z,48.80
2023-04-30T06:47:38.394Z,48.70
2023-04-30T06:50:07.651Z,48.50
2023-04-30T06:52:37.005Z,48.10
2023-04-30T06:55:06.179Z,46.90
2023-04-30T06:57:34.724Z,48.10
2023-04-30T07:00:06.564Z,46.30
2023-04-30T07:02:36.744Z,45.60
2023-04-30T07:05:05.485Z,44.70
2023-04-30T07:07:33.887Z,45.10
2023-04-30T07:10:02.238Z,43.20
2023-04-30T07:12:31.407Z,43.50
2023-04-30T07:14:59.809Z,41.70
2023-04-30T07:17:29.405Z,42.60
2023-04-30T07:20:02.143Z,41.80
2023-04-30T07:22:30.696Z,41.20
2023-04-30T07:24:59.346Z,41.90
2023-04-30T07:27:28.299Z,40.80
2023-04-30T07:29:57.492Z,40.30
2023-04-30T07:32:27.211Z,42.00
2023-04-30T07:34:56.083Z,39.50
2023-04-30T07:37:26.755Z,39.30
2023-04-30T07:39:55.602Z,38.10
2023-04-30T07:42:24.350Z,37.50
2023-04-30T07:44:53.003Z,38.70
2023-04-30T07:47:21.793Z,38.40
2023-04-30T07:49:50.737Z,38.40
2023-04-30T07:52:19.623Z,37.10
2023-04-30T07:54:50.033Z,39.10
2023-04-30T07:57:18.747Z,37.50
2023-04-30T07:59:51.302Z,34.90
2023-04-30T08:02:20.970Z,36.30
2023-04-30T08:04:49.820Z,36.30
2023-04-30T08:07:18.926Z,40.40
2023-04-30T08:09:47.487Z,37.40
2023-04-30T08:12:18.675Z,36.10
2023-04-30T08:14:47.293Z,36.60
2023-04-30T08:17:16.446Z,37.70
2023-04-30T08:19:46.371Z,37.40
2023-04-30T08:22:15.510Z,34.50
2023-04-30T08:24:44.416Z,38.80
2023-04-30T08:27:13.222Z,34.20
2023-04-30T08:29:43.511Z,32.90
2023-04-30T08:32:12.559Z,35.20
2023-04-30T08:34:41.888Z,33.60
2023-04-30T08:37:11.017Z,32.30
2023-04-30T08:39:40.495Z,33.30
2023-04-30T08:42:11.134Z,32.20
2023-04-30T08:44:44.004Z,31.50
2023-04-30T08:47:15.092Z,32.20
2023-04-30T08:49:44.982Z,30.30
2023-04-30T08:52:13.914Z,32.40
2023-04-30T08:54:45.903Z,31.70
2023-04-30T08:57:15.283Z,31.00
2023-04-30T08:59:47.532Z,32.20
2023-04-30T09:02:19.523Z,30.00
2023-04-30T09:04:49.854Z,32.70
2023-04-30T09:07:20.060Z,29.30
2023-04-30T09:09:49.275Z,29.40
2023-04-30T09:12:19.936Z,30.20
2023-04-30T09:15:03.879Z,30.90
2023-04-30T09:17:35.277Z,31.50
2023-04-30T09:20:17.238Z,33.10
2023-04-30T09:22:46.079Z,30.00
2023-04-30T09:25:14.841Z,30.50
2023-04-30T09:27:46.198Z,26.30
2023-04-30T09:30:33.043Z,28.10
2023-04-30T09:33:04.496Z,28.00
2023-04-30T09:35:34.681Z,28.00
2023-04-30T09:38:04.519Z,29.60
2023-04-30T09:40:41.832Z,27.90
2023-04-30T09:43:11.113Z,29.00
2023-04-30T09:45:45.320Z,27.80
2023-04-30T09:48:19.317Z,27.10
2023-04-30T09:50:48.639Z,27.80
2023-04-30T09:53:19.555Z,27.90
2023-04-30T09:56:01.877Z,24.30
2023-04-30T09:58:41.081Z,25.00
2023-04-30T10:01:11.409Z,25.90
2023-04-30T10:03:44.130Z,26.10
2023-04-30T10:06:16.083Z,26.10
2023-04-30T10:08:48.036Z,24.50
2023-04-30T10:11:22.288Z,26.30
2023-04-30T10:13:56.022Z,25.80
2023-04-30T10:16:43.245Z,24.70
2023-04-30T10:19:20.273Z,26.00
2023-04-30T10:21:49.599Z,25.80
2023-04-30T10:24:21.046Z,25.00
2023-04-30T10:26:51.137Z,25.30
2023-04-30T10:29:20.036Z,27.10
2023-04-30T10:31:52.870Z,26.40
2023-04-30T10:34:39.885Z,24.70
2023-04-30T10:37:14.499Z,26.70
2023-04-30T10:39:44.070Z,26.90
2023-04-30T10:42:13.592Z,24.30
2023-04-30T10:44:42.904Z,25.40
2023-04-30T10:47:11.455Z,27.10
2023-04-30T10:49:44.330Z,27.10
2023-04-30T10:52:13.316Z,25.70
2023-04-30T10:54:50.505Z,25.50
2023-04-30T10:57:20.205Z,26.70
2023-04-30T10:59:55.666Z,27.00
2023-04-30T11:02:24.912Z,24.90
2023-04-30T11:05:15.342Z,26.40
2023-04-30T11:07:52.796Z,24.30
2023-04-30T11:10:24.092Z,25.30
2023-04-30T11:12:54.386Z,25.10
2023-04-30T11:15:26.553Z,25.40
2023-04-30T11:17:59.793Z,23.90
2023-04-30T11:20:29.995Z,23.60
2023-04-30T11:23:14.201Z,22.80
2023-04-30T11:25:47.454Z,23.40
2023-04-30T11:28:18.346Z,25.20
2023-04-30T11:30:55.221Z,25.10
2023-04-30T11:33:27.040Z,23.30
2023-04-30T11:35:58.164Z,25.30
2023-04-30T11:38:28.976Z,24.40
2023-04-30T11:40:59.213Z,23.10
2023-04-30T11:43:29.587Z,24.50
2023-04-30T11:46:08.156Z,23.10
2023-04-30T11:48:38.140Z,25.40
2023-04-30T11:51:18.773Z,25.50
2023-04-30T11:53:48.867Z,24.80
2023-04-30T11:56:20.708Z,24.50
2023-04-30T11:58:51.013Z,24.10
2023-04-30T12:01:24.805Z,23.50
2023-04-30T12:03:54.319Z,24.20
2023-04-30T12:06:25.857Z,23.40
2023-04-30T12:08:55.639Z,23.20
2023-04-30T12:11:26.308Z,23.20
2023-04-30T12:13:56.375Z,24.70
2023-04-30T12:16:25.902Z,25.00
2023-04-30T12:18:54.318Z,23.50
2023-04-30T12:21:24.574Z,23.10
2023-04-30T12:23:54.484Z,23.10
2023-04-30T12:26:23.398Z,23.60
2023-04-30T12:28:52.721Z,22.90
2023-04-30T12:31:21.281Z,23.00
2023-04-30T12:33:57.080Z,23.10
2023-04-30T12:36:33.457Z,23.20
2023-04-30T12:39:08.851Z,23.30
2023-04-30T12:41:43.010Z,23.50
2023-04-30T12:44:22.184Z,21.20
2023-04-30T12:46:53.521Z,23.40
2023-04-30T12:49:26.653Z,21.60
2023-04-30T12:52:01.754Z,21.70
2023-04-30T12:54:32.868Z,23.20
2023-04-30T12:57:03.677Z,22.60
2023-04-30T12:59:33.612Z,21.60
2023-04-30T13:02:10.614Z,21.90
2023-04-30T13:04:40.197Z,22.80
2023-04-30T13:07:10.800Z,23.10
2023-04-30T13:09:39.630Z,23.40
2023-04-30T13:12:08.608Z,22.70
2023-04-30T13:14:37.434Z,22.50
2023-04-30T13:17:07.497Z,23.40
2023-04-30T13:19:36.951Z,22.70
2023-04-30T13:22:05.561Z,24.50
2023-04-30T13:24:35.916Z,21.90
2023-04-30T13:27:05.274Z,21.40
2023-04-30T13:29:34.584Z,22.00
2023-04-30T13:32:04.607Z,21.30
2023-04-30T13:34:33.252Z,21.00
2023-04-30T13:37:01.956Z,20.90
2023-04-30T13:39:30.891Z,22.90
2023-04-30T13:42:03.033Z,21.30
2023-04-30T13:44:33.006Z,20.50
2023-04-30T13:47:02.012Z,21.60
2023-04-30T13:49:30.821Z,21.50
2023-04-30T13:51:59.574Z,20.60
2023-04-30T13:54:27.961Z,21.30
2023-04-30T13:56:56.634Z,20.90
2023-04-30T13:59:29.589Z,21.00
2023-04-30T14:01:58.864Z,20.00
2023-04-30T14:04:27.629Z,20.50
2023-04-30T14:06:57.613Z,22.10
2023-04-30T14:09:27.022Z,21.70
2023-04-30T14:11:56.218Z,20.70
2023-04-30T14:14:27.093Z,21.20
2023-04-30T14:16:55.779Z,20.20
2023-04-30T14:19:24.667Z,21.40
2023-04-30T14:21:53.194Z,21.10
2023-04-30T14:24:21.829Z,22.00
2023-04-30T14:26:50.617Z,21.40
2023-04-30T14:29:21.565Z,21.20
2023-04-30T14:31:51.822Z,20.00
2023-04-30T14:34:20.379Z,20.00
2023-04-30T14:36:49.049Z,20.10
2023-04-30T14:39:17.724Z,20.80
2023-04-30T14:41:46.564Z,21.00
2023-04-30T14:44:16.882Z,21.00
2023-04-30T14:46:46.034Z,18.50
2023-04-30T14:49:16.196Z,19.10
2023-04-30T14:51:45.105Z,20.60
2023-04-30T14:54:14.048Z,20.00
2023-04-30T14:56:44.617Z,20.40
2023-04-30T14:59:13.900Z,20.20
2023-04-30T15:01:42.873Z,20.80
2023-04-30T15:04:12.046Z,20.10
2023-04-30T15:06:42.371Z,21.10
2023-04-30T15:09:12.464Z,20.60
2023-04-30T15:11:41.302Z,21.20
2023-04-30T15:14:09.984Z,22.00
2023-04-30T15:16:39.482Z,22.50
2023-04-30T15:19:08.089Z,20.90
2023-04-30T15:21:37.879Z,20.90
2023-04-30T15:24:09.345Z,20.90
2023-04-30T15:26:38.187Z,21.30
2023-04-30T15:29:06.729Z,20.80
2023-04-30T15:31:35.714Z,21.40
2023-04-30T15:34:04.643Z,20.50
2023-04-30T15:36:34.184Z,19.70
2023-04-30T15:39:05.033Z,20.60
2023-04-30T15:41:35.631Z,19.30
2023-04-30T15:44:04.170Z,19.90
2023-04-30T15:46:34.928Z,20.60
2023-04-30T15:49:03.554Z,19.50
2023-04-30T15:51:31.943Z,20.90
2023-04-30T15:54:00.383Z,20.40
2023-04-30T15:56:29.409Z,20.90
2023-04-30T15:58:59.232Z,19.90
2023-04-30T16:01:27.736Z,20.90
2023-04-30T16:03:56.606Z,21.40
2023-04-30T16:06:25.532Z,20.20
2023-04-30T16:08:54.289Z,21.00
2023-04-30T16:11:25.647Z,21.30
2023-04-30T16:13:54.502Z,21.80
2023-04-30T16:16:25.550Z,22.20
2023-04-30T16:18:55.651Z,22.30
2023-04-30T16:21:24.900Z,22.70
2023-04-30T16:23:53.325Z,21.60
2023-04-30T16:26:22.095Z,21.70
2023-04-30T16:28:50.681Z,21.80
2023-04-30T16:31:22.809Z,22.00
2023-04-30T16:33:53.021Z,21.80
2023-04-30T16:36:21.604Z,20.90
2023-04-30T16:38:50.110Z,21.40
2023-04-30T16:41:19.081Z,20.80
2023-04-30T16:43:47.770Z,22.20
2023-04-30T16:46:16.303Z,21.00
2023-04-30T16:48:44.809Z,21.50
2023-04-30T16:51:14.717Z,22.20
2023-04-30T16:53:43.057Z,22.40
2023-04-30T16:56:11.422Z,21.40
2023-04-30T16:58:39.976Z,21.50
2023-04-30T17:01:08.303Z,21.30
2023-04-30T17:03:37.045Z,22.10
2023-04-30T17:06:06.859Z,21.70
2023-04-30T17:08:37.421Z,21.80
2023-04-30T17:11:06.426Z,23.20
2023-04-30T17:13:34.874Z,22.00
2023-04-30T17:16:03.393Z,21.50
2023-04-30T17:18:31.842Z,23.20
2023-04-30T17:21:00.282Z,22.40
2023-04-30T17:23:28.700Z,21.80
2023-04-30T17:25:58.518Z,22.40
2023-04-30T17:28:26.920Z,22.10
2023-04-30T17:30:56.509Z,22.40
2023-04-30T17:33:26.529Z,22.40
2023-04-30T17:35:55.082Z,23.10
2023-04-30T17:38:23.461Z,23.70
2023-04-30T17:40:53.234Z,23.10
2023-04-30T17:43:22.983Z,23.20
2023-04-30T17:45:53.333Z,23.30
2023-04-30T17:48:22.340Z,23.60
2023-04-30T17:50:51.801Z,24.00
2023-04-30T17:53:20.505Z,22.30
2023-04-30T17:55:49.601Z,24.00
2023-04-30T17:58:20.172Z,24.40
2023-04-30T18:00:50.180Z,24.00
2023-04-30T18:03:19.098Z,24.00
2023-04-30T18:05:47.614Z,23.80
2023-04-30T18:08:15.973Z,24.40
2023-04-30T18:10:44.402Z,25.90
2023-04-30T18:13:12.710Z,26.50
2023-04-30T18:15:41.039Z,26.60
2023-04-30T18:18:11.014Z,26.40
2023-04-30T18:20:39.867Z,27.20
2023-04-30T18:23:10.011Z,28.60
2023-04-30T18:25:38.702Z,29.00
2023-04-30T18:28:07.725Z,29.50
2023-04-30T18:30:36.902Z,29.60
2023-04-30T18:33:05.414Z,31.30
2023-04-30T18:35:36.030Z,31.10
2023-04-30T18:38:04.428Z,30.80
2023-04-30T18:40:32.722Z,30.20
2023-04-30T18:43:02.055Z,31.80
2023-04-30T18:45:30.513Z,29.20
2023-04-30T18:47:59.033Z,29.50
2023-04-30T18:50:27.642Z,30.60
2023-04-30T18:52:57.444Z,31.80
2023-04-30T18:55:25.816Z,31.30
2023-04-30T18:57:56.296Z,33.20
2023-04-30T19:00:24.842Z,34.00
2023-04-30T19:02:53.411Z,38.00
2023-04-30T19:05:21.943Z,38.50
2023-04-30T19:07:50.574Z,38.20
2023-04-30T19:10:20.534Z,38.30
2023-04-30T19:12:49.508Z,36.80
2023-04-30T19:15:18.109Z,36.20
2023-04-30T19:17:46.487Z,36.30
2023-04-30T19:20:15.194Z,33.10
2023-04-30T19:22:43.664Z,33.20
2023-04-30T19:25:12.415Z,33.70
2023-04-30T19:27:43.982Z,34.00
2023-04-30T19:30:14.312Z,36.90
2023-04-30T19:32:42.758Z,37.90
2023-04-30T19:35:12.315Z,39.10
2023-04-30T19:37:40.847Z,40.10
2023-04-30T19:40:11.941Z,40.50
2023-04-30T19:42:41.996Z,39.90
2023-04-30T19:45:11.802Z,38.80
2023-04-30T19:47:40.331Z,37.20
2023-04-30T19:50:10.370Z,36.30
2023-04-30T19:52:38.777Z,38.10
2023-04-30T19:55:07.586Z,39.90
2023-04-30T19:57:36.833Z,39.90
2023-04-30T20:00:09.834Z,40.70
2023-04-30T20:02:42.124Z,41.70
2023-04-30T20:05:11.866Z,40.90
2023-04-30T20:07:40.658Z,40.90
2023-04-30T20:10:10.715Z,41.40
2023-04-30T20:12:39.521Z,42.50
2023-04-30T20:15:10.760Z,42.80
2023-04-30T20:17:39.314Z,43.30
2023-04-30T20:20:08.963Z,42.70
2023-04-30T20:22:37.356Z,43.20
2023-04-30T20:25:06.574Z,44.30
2023-04-30T20:27:35.874Z,44.80
2023-04-30T20:30:04.965Z,44.60
2023-04-30T20:32:35.705Z,43.40
2023-04-30T20:35:04.789Z,44.40
2023-04-30T20:37:33.427Z,44.00
2023-04-30T20:40:02.307Z,43.00
2023-04-30T20:42:31.038Z,43.50
2023-04-30T20:44:59.471Z,44.80
2023-04-30T20:47:27.901Z,46.00
2023-04-30T20:49:59.007Z,47.50
2023-04-30T20:52:27.376Z,47.90
2023-04-30T20:54:56.378Z,48.00
2023-04-30T20:57:24.750Z,47.90
2023-04-30T20:59:53.064Z,48.80
2023-04-30T21:02:21.592Z,49.60
2023-04-30T21:04:50.623Z,50.40
2023-04-30T21:07:20.417Z,51.20
2023-04-30T21:09:48.936Z,50.70
2023-04-30T21:12:17.784Z,49.70
2023-04-30T21:14:46.160Z,48.70
2023-04-30T21:17:15.294Z,48.60
2023-04-30T21:19:43.934Z,48.70
2023-04-30T21:22:14.530Z,49.40
2023-04-30T21:24:44.306Z,49.80
2023-04-30T21:27:12.681Z,49.90
2023-04-30T21:29:44.569Z,48.20
2023-04-30T21:32:13.509Z,46.00
2023-04-30T21:34:41.868Z,45.70
2023-04-30T21:37:10.261Z,46.10
2023-04-30T21:39:38.768Z,47.30
2023-04-30T21:42:08.886Z,47.10
2023-04-30T21:44:37.181Z,47.20
2023-04-30T21:47:08.325Z,46.60
2023-04-30T21:49:37.031Z,45.90
2023-04-30T21:52:08.213Z,46.50
2023-04-30T21:54:38.780Z,46.90
2023-04-30T21:57:08.472Z,48.30
2023-04-30T21:59:36.801Z,48.00
2023-04-30T22:02:20.003Z,48.10
2023-04-30T22:04:51.250Z,48.10
2023-04-30T22:07:19.617Z,49.90
2023-04-30T22:09:48.087Z,50.50
2023-04-30T22:12:19.261Z,50.70
2023-04-30T22:14:49.901Z,49.60
2023-04-30T22:17:18.368Z,50.10
2023-04-30T22:19:46.869Z,47.90
2023-04-30T22:22:15.598Z,46.20
2023-04-30T22:24:44.134Z,47.60
2023-04-30T22:27:12.504Z,47.70
2023-04-30T22:29:43.511Z,48.80
2023-04-30T22:32:13.148Z,47.80
2023-04-30T22:34:42.730Z,47.70
2023-04-30T22:37:11.769Z,49.80
2023-04-30T22:39:42.200Z,49.50
2023-04-30T22:42:11.923Z,50.00
2023-04-30T22:44:41.875Z,47.90
2023-04-30T22:47:11.153Z,46.00
2023-04-30T22:49:39.804Z,45.10
2023-04-30T22:52:08.227Z,45.40
2023-04-30T22:54:38.686Z,46.40
2023-04-30T22:57:07.173Z,46.40
2023-04-30T22:59:35.549Z,46.50
2023-04-30T23:02:05.262Z,46.90
2023-04-30T23:04:36.302Z,47.60
2023-04-30T23:07:05.099Z,49.10
2023-04-30T23:09:33.956Z,48.20
2023-04-30T23:12:04.483Z,48.40
2023-04-30T23:14:33.048Z,49.70
2023-04-30T23:17:04.210Z,50.70
2023-04-30T23:19:33.158Z,50.80
2023-04-30T23:22:05.202Z,52.20
2023-04-30T23:24:35.910Z,53.90
2023-04-30T23:27:04.628Z,54.20
2023-04-30T23:29:34.886Z,54.70
2023-04-30T23:32:06.028Z,52.20
2023-04-30T23:34:34.803Z,49.60
2023-04-30T23:37:03.576Z,48.80
2023-04-30T23:39:31.940Z,48.20
2023-04-30T23:42:00.342Z,49.10
2023-04-30T23:44:32.208Z,50.00
2023-04-30T23:47:01.883Z,48.40
2023-04-30T23:49:31.504Z,47.10
2023-04-30T23:51:59.868Z,45.20
2023-04-30T23:54:28.838Z,44.30
2023-04-30T23:56:57.249Z,44.10
2023-04-30T23:59:25.849Z,45.00
